Time;durP1;ratioP1;P1;durP2;ratioP2;P2;SDS_P1;SDS_P2;PMS_P1;PMS_P2;Temp;Humidity;BMP_temperature;BMP_pressure;BME280_temperature;BME280_humidity;BME280_pressure;Samples;Min_cycle;Max_cycle;Signal;HPM_P1;HPM_P2
2024/01/25 00:00:19;;;;;;;4.40;3.23;;;23.70;54.80;;;;;;5075761;28;20931;-88
2024/01/25 00:02:46;;;;;;;5.10;3.33;;;23.60;54.80;;;;;;5075885;28;20445;-88
2024/01/25 00:05:13;;;;;;;6.23;3.60;;;23.60;54.70;;;;;;5074766;28;20451;-88
2024/01/25 00:07:48;;;;;;;4.90;2.80;;;23.60;54.80;;;;;;5075559;28;20466;-88
2024/01/25 00:10:16;;;;;;;4.50;2.80;;;23.60;54.70;;;;;;5075804;28;20930;-87
2024/01/25 00:12:43;;;;;;;5.10;2.90;;;23.60;54.80;;;;;;5075944;28;20441;-87
2024/01/25 00:15:10;;;;;;;5.23;2.93;;;23.60;54.80;;;;;;5075708;28;21014;-88
2024/01/25 00:17:37;;;;;;;4.80;3.00;;;23.50;54.70;;;;;;5075471;28;20484;-88
2024/01/25 00:20:05;;;;;;;4.50;2.37;;;23.50;54.70;;;;;;5075485;28;20450;-88
2024/01/25 00:22:31;;;;;;;3.50;2.40;;;23.50;54.70;;;;;;5074303;28;20606;-87
2024/01/25 00:25:00;;;;;;;5.00;3.00;;;23.50;54.70;;;;;;5075428;28;20486;-87
2024/01/25 00:27:27;;;;;;;3.83;2.80;;;23.50;54.70;;;;;;5075100;28;20459;-88
2024/01/25 00:29:54;;;;;;;7.07;3.93;;;23.50;54.80;;;;;;5075054;28;20459;-87
2024/01/25 00:32:21;;;;;;;3.80;2.47;;;23.50;54.80;;;;;;5075321;28;20543;-87
2024/01/25 00:34:48;;;;;;;4.80;2.50;;;23.50;54.70;;;;;;5075070;28;20442;-87
2024/01/25 00:37:15;;;;;;;4.23;2.70;;;23.50;54.80;;;;;;5074832;28;20484;-87
2024/01/25 00:39:42;;;;;;;5.00;3.30;;;23.50;54.80;;;;;;5074775;28;20444;-87
2024/01/25 00:42:14;;;;;;;3.73;2.43;;;23.50;54.70;;;;;;5074954;28;20532;-87
2024/01/25 00:44:41;;;;;;;4.03;2.70;;;23.50;54.70;;;;;;5075077;28;20421;-88
2024/01/25 00:47:09;;;;;;;5.80;2.93;;;23.40;54.60;;;;;;5075016;28;20803;-87
2024/01/25 00:49:37;;;;;;;4.37;2.70;;;23.40;54.60;;;;;;5074742;28;20441;-87
2024/01/25 00:52:04;;;;;;;4.80;3.13;;;23.40;54.60;;;;;;5074304;28;20436;-88
2024/01/25 00:54:32;;;;;;;4.27;2.87;;;23.40;54.70;;;;;;5074611;28;20443;-87
2024/01/25 00:56:59;;;;;;;4.97;2.27;;;23.40;54.70;;;;;;5074338;28;20862;-88
2024/01/25 00:59:28;;;;;;;5.57;2.67;;;23.40;54.70;;;;;;5074608;28;20443;-87
2024/01/25 01:01:58;;;;;;;3.70;2.33;;;23.40;54.70;;;;;;5074706;28;20437;-88
2024/01/25 01:04:25;;;;;;;3.30;2.40;;;23.30;54.60;;;;;;5074326;28;20463;-87
2024/01/25 01:06:52;;;;;;;4.80;2.67;;;23.30;54.70;;;;;;5074544;28;20447;-88
2024/01/25 01:09:19;;;;;;;4.93;2.40;;;23.30;54.70;;;;;;5075611;28;20447;-87
2024/01/25 01:11:46;;;;;;;4.33;2.60;;;23.30;54.70;;;;;;5075039;28;20442;-88
2024/01/25 01:14:13;;;;;;;3.67;2.20;;;23.30;54.60;;;;;;5081819;28;20531;-89
2024/01/25 01:16:41;;;;;;;3.20;2.40;;;23.30;54.70;;;;;;5073696;28;20444;-88
2024/01/25 01:19:08;;;;;;;4.70;2.60;;;23.30;54.70;;;;;;5073916;28;20440;-88
2024/01/25 01:21:35;;;;;;;3.23;2.10;;;23.30;54.70;;;;;;5073790;28;20444;-87
2024/01/25 01:24:01;;;;;;;5.37;2.90;;;23.30;54.70;;;;;;5074422;28;20443;-88
2024/01/25 01:26:28;;;;;;;4.83;2.30;;;23.30;54.70;;;;;;5074263;28;20828;-88
2024/01/25 01:28:55;;;;;;;5.20;2.40;;;23.30;54.70;;;;;;5075420;28;20468;-88
2024/01/25 01:31:22;;;;;;;4.60;2.50;;;23.30;54.70;;;;;;5074596;28;20923;-88
2024/01/25 01:33:50;;;;;;;3.67;2.63;;;23.20;54.70;;;;;;5074245;28;20878;-88
2024/01/25 01:36:17;;;;;;;3.13;2.40;;;23.20;54.70;;;;;;5074020;28;20447;-87
2024/01/25 01:38:44;;;;;;;3.80;2.20;;;23.20;54.70;;;;;;5073879;28;20484;-87
2024/01/25 01:41:12;;;;;;;5.53;2.80;;;23.30;54.80;;;;;;5073701;28;20443;-87
2024/01/25 01:43:39;;;;;;;5.27;2.57;;;23.20;54.70;;;;;;5073891;28;20517;-87
2024/01/25 01:46:12;;;;;;;3.87;2.70;;;23.20;55.30;;;;;;5073782;28;20447;-88
2024/01/25 01:48:40;;;;;;;4.17;2.40;;;23.30;54.90;;;;;;5074277;28;20450;-88
2024/01/25 01:51:09;;;;;;;5.90;3.03;;;23.20;54.80;;;;;;5073944;28;20440;-88
2024/01/25 01:53:37;;;;;;;4.47;2.70;;;23.20;54.80;;;;;;5098116;28;20432;-89
2024/01/25 01:56:04;;;;;;;4.90;2.23;;;23.30;54.90;;;;;;5098377;28;20504;-89
2024/01/25 01:58:32;;;;;;;3.17;2.30;;;23.20;54.80;;;;;;5078494;28;20484;-88
2024/01/25 02:01:00;;;;;;;3.73;2.00;;;23.20;54.80;;;;;;5073822;28;20445;-88
2024/01/25 02:03:27;;;;;;;4.10;2.63;;;23.20;54.80;;;;;;5073938;28;20451;-87
2024/01/25 02:05:54;;;;;;;4.33;2.53;;;23.20;54.80;;;;;;5073489;28;20448;-87
2024/01/25 02:08:22;;;;;;;3.77;2.43;;;23.20;54.80;;;;;;5074185;28;20451;-87
2024/01/25 02:10:49;;;;;;;3.53;2.40;;;23.20;54.70;;;;;;5073826;28;20441;-88
2024/01/25 02:13:16;;;;;;;4.57;2.50;;;23.20;54.70;;;;;;5073819;28;20850;-88
2024/01/25 02:15:43;;;;;;;3.13;2.30;;;23.20;54.70;;;;;;5073690;28;20523;-88
2024/01/25 02:18:10;;;;;;;3.10;2.20;;;23.20;54.70;;;;;;5073366;28;20484;-88
2024/01/25 02:20:37;;;;;;;3.23;1.97;;;23.20;54.70;;;;;;5073331;28;20447;-88
2024/01/25 02:23:05;;;;;;;4.30;2.60;;;23.20;54.60;;;;;;5073114;28;20559;-88
2024/01/25 02:25:32;;;;;;;3.57;2.27;;;23.20;54.60;;;;;;5073291;28;20462;-88
2024/01/25 02:27:59;;;;;;;4.13;2.37;;;23.20;54.60;;;;;;5073387;28;20436;-88
2024/01/25 02:30:26;;;;;;;4.27;2.40;;;23.20;54.60;;;;;;5077165;28;20805;-88
2024/01/25 02:32:53;;;;;;;3.57;2.13;;;23.20;54.60;;;;;;5077643;28;20438;-88
2024/01/25 02:35:20;;;;;;;3.30;1.90;;;23.20;54.60;;;;;;5077189;28;20447;-88
2024/01/25 02:37:47;;;;;;;4.03;2.10;;;23.20;54.60;;;;;;5078011;28;20483;-87
2024/01/25 02:40:16;;;;;;;3.23;2.10;;;23.20;54.60;;;;;;5077669;28;20527;-88
2024/01/25 02:42:42;;;;;;;4.00;2.77;;;23.20;54.60;;;;;;5077324;28;20432;-87
2024/01/25 02:45:10;;;;;;;2.80;1.90;;;23.20;54.60;;;;;;5077334;28;20437;-88
2024/01/25 02:47:37;;;;;;;4.83;2.70;;;23.20;54.60;;;;;;5077532;28;20448;-87
2024/01/25 02:50:04;;;;;;;4.93;2.27;;;23.30;54.60;;;;;;5077269;28;20769;-88
2024/01/25 02:52:31;;;;;;;5.43;2.67;;;23.20;54.60;;;;;;5077021;28;20439;-87
2024/01/25 02:54:57;;;;;;;4.33;2.10;;;23.30;54.60;;;;;;5076895;28;20551;-89
2024/01/25 02:57:26;;;;;;;5.07;2.20;;;23.20;54.60;;;;;;5077154;28;20897;-89
2024/01/25 02:59:53;;;;;;;4.70;2.43;;;23.20;54.50;;;;;;5077281;28;20445;-87
2024/01/25 03:02:20;;;;;;;3.60;2.00;;;23.20;54.50;;;;;;5077061;28;20444;-88
2024/01/25 03:04:47;;;;;;;3.63;2.23;;;23.30;54.60;;;;;;5077035;28;20444;-88
2024/01/25 03:07:13;;;;;;;3.37;2.13;;;23.30;54.60;;;;;;5077244;28;20498;-87
2024/01/25 03:09:40;;;;;;;4.30;2.30;;;23.20;54.50;;;;;;5076589;28;20441;-87
2024/01/25 03:12:07;;;;;;;6.00;2.17;;;23.20;54.50;;;;;;5076470;28;20444;-87
2024/01/25 03:14:35;;;;;;;2.93;2.40;;;23.20;54.50;;;;;;5076918;28;20798;-88
2024/01/25 03:17:02;;;;;;;4.23;2.13;;;23.20;54.50;;;;;;5076627;28;20441;-88
2024/01/25 03:19:29;;;;;;;3.37;2.10;;;23.20;54.50;;;;;;5076198;28;20490;-88
2024/01/25 03:21:56;;;;;;;3.97;2.30;;;23.20;54.50;;;;;;5076462;28;20467;-88
2024/01/25 03:24:24;;;;;;;3.40;2.07;;;23.30;54.50;;;;;;5076269;28;20444;-87
2024/01/25 03:26:51;;;;;;;3.53;2.23;;;23.20;54.50;;;;;;5076261;28;20445;-87
2024/01/25 03:29:17;;;;;;;3.30;1.80;;;23.30;54.50;;;;;;5076349;28;20440;-87
2024/01/25 03:31:45;;;;;;;3.50;1.90;;;23.20;54.40;;;;;;5076493;28;20447;-87
2024/01/25 03:34:12;;;;;;;3.97;1.90;;;23.30;54.50;;;;;;5076443;28;20536;-87
2024/01/25 03:36:40;;;;;;;2.80;1.63;;;23.30;54.50;;;;;;5076329;28;20935;-87
2024/01/25 03:39:08;;;;;;;3.20;1.80;;;23.20;55.00;;;;;;5076466;28;20491;-88
2024/01/25 03:41:35;;;;;;;2.43;1.73;;;23.30;54.40;;;;;;5076054;28;20441;-87
2024/01/25 03:44:01;;;;;;;3.30;2.20;;;23.30;54.40;;;;;;5076012;28;20885;-87
2024/01/25 03:46:28;;;;;;;5.87;2.70;;;23.30;54.40;;;;;;5076136;28;20436;-86
2024/01/25 03:48:56;;;;;;;3.77;2.43;;;23.30;54.40;;;;;;5076013;28;20529;-87
2024/01/25 03:51:23;;;;;;;3.87;2.23;;;23.30;54.40;;;;;;5075812;28;20433;-87
2024/01/25 03:53:52;;;;;;;3.80;1.83;;;23.20;54.30;;;;;;5075802;28;20440;-88
2024/01/25 03:56:19;;;;;;;3.17;1.70;;;23.30;54.40;;;;;;5075837;28;20546;-87
2024/01/25 03:58:46;;;;;;;3.03;1.90;;;23.20;54.40;;;;;;5076052;28;20510;-86
2024/01/25 04:01:13;;;;;;;5.00;2.20;;;23.30;54.40;;;;;;5075803;28;20934;-89
2024/01/25 04:03:41;;;;;;;6.53;2.43;;;23.30;54.30;;;;;;5075852;28;20543;-87
2024/01/25 04:06:09;;;;;;;2.60;1.97;;;23.40;54.40;;;;;;5075619;28;20505;-88
2024/01/25 04:08:36;;;;;;;3.73;1.70;;;23.30;54.30;;;;;;5075508;28;20452;-88
2024/01/25 04:11:02;;;;;;;2.97;1.80;;;23.30;54.40;;;;;;5075960;28;20540;-88
2024/01/25 04:13:29;;;;;;;3.57;2.00;;;23.30;54.30;;;;;;5075412;28;20447;-89
2024/01/25 04:15:56;;;;;;;4.27;2.47;;;23.20;54.20;;;;;;5075987;28;20483;-87
2024/01/25 04:18:23;;;;;;;4.57;2.03;;;23.30;54.30;;;;;;5075439;28;20507;-88
2024/01/25 04:20:50;;;;;;;4.20;2.03;;;23.30;54.40;;;;;;5075454;28;20535;-89
2024/01/25 04:23:18;;;;;;;3.67;2.10;;;23.20;54.30;;;;;;5075335;28;20813;-88
2024/01/25 04:25:45;;;;;;;3.47;1.90;;;23.20;54.30;;;;;;5075832;28;20462;-88
2024/01/25 04:28:12;;;;;;;4.13;2.43;;;23.20;54.30;;;;;;5075949;28;20436;-87
2024/01/25 04:30:39;;;;;;;3.03;1.73;;;23.20;54.30;;;;;;5074821;28;20447;-89
2024/01/25 04:33:06;;;;;;;2.63;1.87;;;23.20;54.30;;;;;;5075150;28;20949;-88
2024/01/25 04:35:33;;;;;;;3.73;2.20;;;23.20;54.30;;;;;;5075253;28;20436;-88
2024/01/25 04:38:00;;;;;;;4.97;2.53;;;23.20;54.40;;;;;;5074956;28;20533;-89
2024/01/25 04:40:28;;;;;;;3.20;2.07;;;23.20;54.30;;;;;;5075483;28;20444;-88
2024/01/25 04:42:55;;;;;;;4.00;1.87;;;23.20;54.30;;;;;;5075298;28;20436;-88
2024/01/25 04:45:22;;;;;;;4.13;2.10;;;23.20;54.30;;;;;;5074746;28;20440;-88
2024/01/25 04:47:49;;;;;;;3.43;2.03;;;23.20;54.30;;;;;;5074896;28;20441;-89
2024/01/25 04:50:16;;;;;;;2.87;1.77;;;23.10;54.30;;;;;;5074789;28;20441;-88
2024/01/25 04:52:42;;;;;;;2.87;1.83;;;23.20;54.30;;;;;;5074472;28;20444;-88
2024/01/25 04:55:10;;;;;;;2.80;1.63;;;23.20;54.30;;;;;;5074939;28;20930;-87
2024/01/25 04:57:38;;;;;;;3.80;2.07;;;23.20;54.30;;;;;;5075040;28;20444;-88
2024/01/25 05:00:06;;;;;;;2.83;1.63;;;23.30;54.40;;;;;;5074599;28;20488;-89
2024/01/25 05:02:33;;;;;;;3.37;1.50;;;23.20;54.20;;;;;;5081615;28;20428;-89
2024/01/25 05:05:00;;;;;;;2.53;1.63;;;23.30;54.20;;;;;;5099125;28;20444;-88
2024/01/25 05:07:26;;;;;;;3.30;1.97;;;23.30;54.20;;;;;;5095962;28;20444;-88
2024/01/25 05:09:53;;;;;;;3.73;2.30;;;23.20;54.20;;;;;;5074632;28;20804;-88
2024/01/25 05:12:20;;;;;;;3.40;1.90;;;23.20;54.20;;;;;;5074690;28;20445;-89
2024/01/25 05:14:48;;;;;;;4.07;1.70;;;23.20;54.10;;;;;;5074877;28;21015;-88
2024/01/25 05:17:15;;;;;;;5.53;2.03;;;23.30;54.20;;;;;;5074598;28;20475;-89
2024/01/25 05:19:42;;;;;;;5.40;2.10;;;23.20;54.10;;;;;;5074638;28;20484;-88
2024/01/25 05:22:08;;;;;;;4.77;2.20;;;23.30;54.10;;;;;;5074594;28;20571;-88
2024/01/25 05:24:35;;;;;;;3.67;2.23;;;23.30;54.20;;;;;;5075574;28;20463;-89
2024/01/25 05:27:02;;;;;;;2.20;1.50;;;23.30;54.20;;;;;;5074590;28;20436;-88
2024/01/25 05:29:29;;;;;;;4.53;1.80;;;23.30;54.20;;;;;;5074969;28;20451;-88
2024/01/25 05:31:57;;;;;;;3.47;1.70;;;23.20;54.10;;;;;;5076101;28;20436;-87
2024/01/25 05:34:26;;;;;;;3.70;1.90;;;23.30;54.10;;;;;;5076231;28;20476;-88
2024/01/25 05:36:52;;;;;;;3.50;2.07;;;23.30;54.10;;;;;;5077441;28;20870;-88
2024/01/25 05:39:21;;;;;;;3.40;1.73;;;23.30;54.10;;;;;;5075555;28;20934;-88
2024/01/25 05:41:48;;;;;;;4.13;1.93;;;23.30;54.10;;;;;;5074336;28;20929;-88
2024/01/25 05:44:14;;;;;;;3.70;2.13;;;23.30;54.10;;;;;;5074495;28;20451;-88
2024/01/25 05:46:41;;;;;;;2.80;1.60;;;23.40;54.10;;;;;;5087713;28;20431;-88
2024/01/25 05:49:10;;;;;;;2.73;1.47;;;23.30;54.00;;;;;;5097872;28;20499;-89
2024/01/25 05:51:37;;;;;;;2.83;1.60;;;23.30;54.00;;;;;;5097008;28;20512;-88
2024/01/25 05:54:04;;;;;;;2.90;1.70;;;23.30;54.00;;;;;;5083688;28;20443;-88
2024/01/25 05:56:31;;;;;;;3.60;2.33;;;23.30;54.00;;;;;;5074539;28;20464;-87
2024/01/25 05:58:57;;;;;;;4.23;1.90;;;23.40;54.00;;;;;;5074882;28;20603;-87
2024/01/25 06:01:24;;;;;;;2.70;2.13;;;23.30;54.00;;;;;;5074948;28;20459;-87
2024/01/25 06:03:51;;;;;;;3.30;1.60;;;23.30;54.00;;;;;;5072910;28;20436;-87
2024/01/25 06:06:19;;;;;;;4.03;2.10;;;23.30;54.00;;;;;;5073845;28;20449;-87
2024/01/25 06:08:46;;;;;;;3.20;2.00;;;23.30;53.90;;;;;;5073970;28;20869;-87
2024/01/25 06:11:13;;;;;;;2.77;1.80;;;23.30;53.90;;;;;;5074540;28;20792;-88
2024/01/25 06:13:39;;;;;;;4.40;1.93;;;23.30;53.90;;;;;;5073832;28;20519;-87
2024/01/25 06:16:07;;;;;;;3.23;1.93;;;23.30;54.00;;;;;;5073341;28;20940;-87
2024/01/25 06:18:33;;;;;;;3.30;1.97;;;23.30;53.90;;;;;;5074005;28;20484;-88
2024/01/25 06:21:00;;;;;;;3.83;1.97;;;23.30;53.90;;;;;;5075064;28;20436;-88
2024/01/25 06:23:28;;;;;;;3.40;1.80;;;23.40;54.00;;;;;;5075256;28;20995;-87
2024/01/25 06:25:55;;;;;;;3.57;1.80;;;23.30;53.80;;;;;;5073940;28;20824;-87
2024/01/25 06:28:22;;;;;;;2.63;1.20;;;23.30;53.90;;;;;;5073432;28;20578;-88
2024/01/25 06:30:48;;;;;;;3.80;1.73;;;23.30;53.90;;;;;;5073451;28;20448;-89
2024/01/25 06:33:15;;;;;;;3.33;1.80;;;23.30;53.90;;;;;;5073522;28;20462;-88
2024/01/25 06:35:42;;;;;;;3.03;1.80;;;23.30;53.90;;;;;;5073962;28;20863;-88
2024/01/25 06:38:09;;;;;;;2.93;1.60;;;23.40;53.90;;;;;;5073199;28;20433;-87
2024/01/25 06:40:38;;;;;;;3.30;1.60;;;23.40;53.90;;;;;;5073264;28;20585;-88
2024/01/25 06:43:05;;;;;;;3.90;2.13;;;23.30;53.80;;;;;;5072949;28;20543;-88
2024/01/25 06:45:32;;;;;;;3.77;1.93;;;23.30;53.70;;;;;;5072807;28;20449;-87
2024/01/25 06:47:59;;;;;;;2.53;1.50;;;23.40;53.90;;;;;;5073025;28;20472;-88
2024/01/25 06:50:26;;;;;;;3.23;1.80;;;23.30;53.80;;;;;;5072313;28;20943;-87
2024/01/25 06:52:53;;;;;;;3.60;1.97;;;23.30;53.80;;;;;;5072609;28;20444;-87
2024/01/25 06:55:20;;;;;;;3.93;2.30;;;23.30;53.80;;;;;;5073017;28;21080;-88
2024/01/25 06:57:48;;;;;;;2.70;1.67;;;23.30;53.80;;;;;;5075753;28;20527;-88
2024/01/25 07:00:16;;;;;;;3.10;1.80;;;23.40;53.80;;;;;;5072469;28;20488;-88
2024/01/25 07:02:43;;;;;;;3.43;1.90;;;23.40;53.90;;;;;;5072723;28;20472;-87
2024/01/25 07:05:11;;;;;;;3.33;1.67;;;23.40;53.80;;;;;;5072598;28;20523;-87
2024/01/25 07:07:39;;;;;;;3.40;1.83;;;23.40;53.80;;;;;;5072961;28;20440;-87
2024/01/25 07:10:07;;;;;;;4.17;1.80;;;23.40;53.80;;;;;;5072991;28;20436;-88
2024/01/25 07:12:34;;;;;;;3.47;2.20;;;23.40;53.80;;;;;;5073007;28;20463;-89
2024/01/25 07:15:02;;;;;;;7.90;1.70;;;23.40;53.80;;;;;;5073795;28;20809;-88
2024/01/25 07:17:29;;;;;;;5.50;1.80;;;23.40;53.80;;;;;;5076508;28;20437;-89
2024/01/25 07:19:56;;;;;;;5.30;2.03;;;23.50;53.80;;;;;;5076687;28;20519;-89
2024/01/25 07:22:23;;;;;;;6.50;1.90;;;23.60;53.80;;;;;;5076394;28;20559;-89
2024/01/25 07:24:50;;;;;;;6.70;2.43;;;23.50;53.90;;;;;;5076160;28;20460;-89
2024/01/25 07:27:16;;;;;;;13.20;1.77;;;23.50;53.80;;;;;;5077480;28;20441;-89
2024/01/25 07:29:45;;;;;;;5.43;2.17;;;23.50;53.80;;;;;;5076273;28;20456;-89
2024/01/25 07:32:13;;;;;;;7.03;2.73;;;23.50;53.90;;;;;;5076852;28;20922;-88
2024/01/25 07:34:40;;;;;;;3.70;1.60;;;23.50;53.90;;;;;;5077111;28;20446;-89
2024/01/25 07:37:07;;;;;;;5.50;2.50;;;23.50;53.90;;;;;;5076260;28;20443;-88
2024/01/25 07:39:34;;;;;;;2.77;1.97;;;23.40;53.90;;;;;;5076217;28;20499;-88
2024/01/25 07:42:00;;;;;;;4.30;2.00;;;23.50;54.10;;;;;;5076361;28;20443;-88
2024/01/25 07:44:27;;;;;;;5.27;2.20;;;23.50;54.00;;;;;;5076264;28;20850;-89
2024/01/25 07:46:54;;;;;;;4.43;2.30;;;23.50;53.90;;;;;;5072151;28;20457;-87
2024/01/25 07:49:22;;;;;;;15.97;3.90;;;23.50;54.00;;;;;;5056219;28;20877;-86
2024/01/25 07:51:49;;;;;;;8.00;3.37;;;23.50;53.70;;;;;;5055721;28;20464;-88
2024/01/25 07:54:16;;;;;;;7.90;2.30;;;23.50;53.90;;;;;;5055943;28;20441;-88
2024/01/25 07:56:43;;;;;;;17.07;2.80;;;23.50;54.00;;;;;;5056008;28;20460;-88
2024/01/25 07:59:09;;;;;;;7.90;2.30;;;23.50;54.10;;;;;;5055852;28;20481;-88
2024/01/25 08:01:36;;;;;;;11.10;3.17;;;23.50;54.20;;;;;;5055960;28;20448;-88
2024/01/25 08:04:03;;;;;;;11.77;2.50;;;23.50;54.00;;;;;;5055469;28;20442;-89
2024/01/25 08:06:31;;;;;;;6.77;2.40;;;23.50;54.10;;;;;;5055638;28;20440;-88
2024/01/25 08:08:58;;;;;;;7.43;2.33;;;23.50;54.20;;;;;;5056783;28;20943;-89
2024/01/25 08:11:26;;;;;;;9.40;3.07;;;23.60;54.30;;;;;;5065250;28;20441;-85
2024/01/25 08:13:53;;;;;;;17.47;2.83;;;23.50;54.00;;;;;;5075459;28;20441;-84
2024/01/25 08:16:20;;;;;;;6.53;2.50;;;23.60;54.10;;;;;;5055889;28;20442;-87
2024/01/25 08:18:47;;;;;;;8.40;3.20;;;23.50;54.00;;;;;;5074403;28;20446;-86
2024/01/25 08:21:14;;;;;;;13.00;3.40;;;23.50;54.10;;;;;;5079347;28;20501;-87
2024/01/25 08:23:42;;;;;;;7.97;3.30;;;23.50;54.10;;;;;;5066283;28;20465;-85
2024/01/25 08:26:12;;;;;;;13.63;3.50;;;23.60;54.20;;;;;;5054874;28;20523;-85
2024/01/25 08:28:40;;;;;;;8.90;2.47;;;23.60;54.20;;;;;;5055107;28;20464;-86
2024/01/25 08:31:07;;;;;;;10.10;3.20;;;23.70;54.20;;;;;;5054805;28;20448;-84
2024/01/25 08:33:34;;;;;;;10.77;3.07;;;23.60;54.00;;;;;;5054619;28;20437;-82
2024/01/25 08:36:01;;;;;;;7.40;3.33;;;23.60;53.80;;;;;;5054898;28;20796;-87
2024/01/25 08:38:28;;;;;;;12.63;3.67;;;23.50;53.60;;;;;;5054575;28;20508;-87
2024/01/25 08:40:56;;;;;;;15.40;2.90;;;23.60;53.80;;;;;;5037122;28;20493;-83
2024/01/25 08:43:23;;;;;;;13.00;3.97;;;23.60;53.80;;;;;;5054313;28;20445;-84
2024/01/25 08:45:49;;;;;;;13.30;4.07;;;23.50;53.00;;;;;;5054782;28;20445;-84
2024/01/25 08:48:16;;;;;;;16.13;4.50;;;23.40;53.20;;;;;;5054900;28;20444;-85
2024/01/25 08:50:43;;;;;;;8.97;3.10;;;23.40;53.30;;;;;;5054678;28;20467;-88
2024/01/25 08:53:10;;;;;;;11.23;3.60;;;23.30;53.40;;;;;;5039976;28;20436;-88
2024/01/25 08:55:37;;;;;;;9.77;3.10;;;23.40;53.70;;;;;;5064319;28;20449;-89
2024/01/25 08:58:05;;;;;;;8.10;3.33;;;23.40;53.80;;;;;;5065313;28;20528;-89
2024/01/25 09:00:32;;;;;;;9.13;3.23;;;23.40;53.70;;;;;;5063429;28;20568;-86
2024/01/25 09:02:59;;;;;;;11.10;3.93;;;23.40;53.70;;;;;;5063529;28;20464;-86
2024/01/25 09:05:28;;;;;;;10.77;3.10;;;23.50;53.80;;;;;;5064803;28;20432;-86
2024/01/25 09:07:54;;;;;;;8.67;3.20;;;23.50;53.70;;;;;;5060795;28;20888;-84
2024/01/25 09:10:21;;;;;;;6.87;3.20;;;23.50;53.60;;;;;;5062989;28;20782;-85
2024/01/25 09:12:50;;;;;;;9.10;3.30;;;23.60;53.70;;;;;;5068241;28;20436;-87
2024/01/25 09:15:19;;;;;;;13.27;3.30;;;23.60;53.70;;;;;;5073962;28;20440;-87
2024/01/25 09:17:46;;;;;;;7.73;3.47;;;23.60;53.70;;;;;;5059686;28;20441;-85
2024/01/25 09:20:13;;;;;;;9.17;3.70;;;23.60;53.60;;;;;;5053869;28;20485;-86
2024/01/25 09:22:39;;;;;;;8.83;3.70;;;23.70;53.60;;;;;;5053504;28;20849;-85
2024/01/25 09:25:07;;;;;;;9.07;3.60;;;23.70;53.60;;;;;;5053308;28;20466;-85
2024/01/25 09:27:34;;;;;;;9.40;2.80;;;23.80;53.70;;;;;;5053664;28;20438;-87
2024/01/25 09:30:00;;;;;;;6.83;2.63;;;23.80;53.70;;;;;;5054299;28;20438;-85
2024/01/25 09:32:28;;;;;;;8.70;3.73;;;23.90;53.70;;;;;;5054213;28;20446;-85
2024/01/25 09:34:55;;;;;;;10.07;3.40;;;23.90;53.60;;;;;;5054230;28;20946;-90
2024/01/25 09:37:24;;;;;;;9.40;3.10;;;24.00;53.70;;;;;;5053599;28;20452;-84
2024/01/25 09:39:51;;;;;;;12.93;3.50;;;24.00;53.60;;;;;;5054188;28;20477;-82
2024/01/25 09:42:18;;;;;;;5.63;2.93;;;24.00;53.60;;;;;;5054204;28;20446;-91
2024/01/25 09:44:45;;;;;;;8.13;3.23;;;24.10;53.70;;;;;;5054221;28;20476;-83
2024/01/25 09:47:12;;;;;;;10.57;3.40;;;24.10;53.70;;;;;;5054020;28;20434;-84
2024/01/25 09:49:42;;;;;;;11.50;2.80;;;24.10;53.70;;;;;;5054310;28;20495;-84
2024/01/25 09:52:13;;;;;;;5.30;2.57;;;24.20;53.70;;;;;;5054147;28;20870;-87
2024/01/25 09:54:40;;;;;;;11.43;3.63;;;24.20;53.70;;;;;;5059342;28;20475;-86
2024/01/25 09:57:14;;;;;;;9.50;3.13;;;24.20;53.80;;;;;;5073441;28;20463;-86
2024/01/25 09:59:41;;;;;;;6.83;2.77;;;24.20;53.80;;;;;;5073199;28;20480;-86
2024/01/25 10:02:10;;;;;;;5.90;2.83;;;24.20;53.80;;;;;;5073607;28;20443;-83
2024/01/25 10:04:37;;;;;;;9.03;2.73;;;24.20;53.70;;;;;;5073185;28;20429;-83
2024/01/25 10:07:05;;;;;;;8.23;2.70;;;24.20;53.30;;;;;;5073415;28;20440;-83
2024/01/25 10:09:39;;;;;;;14.70;3.90;;;24.20;53.20;;;;;;5073339;28;20826;-83
2024/01/25 10:12:07;;;;;;;9.40;2.87;;;24.30;53.10;;;;;;5073376;28;20984;-83
2024/01/25 10:14:34;;;;;;;10.43;3.40;;;24.20;53.00;;;;;;5073029;28;20526;-83
2024/01/25 10:17:02;;;;;;;7.50;2.83;;;24.30;53.00;;;;;;5073043;28;20785;-85
2024/01/25 10:19:29;;;;;;;9.13;2.80;;;24.40;53.00;;;;;;5073552;28;20443;-82
2024/01/25 10:21:57;;;;;;;7.73;2.90;;;24.40;52.90;;;;;;5083057;28;20528;-83
2024/01/25 10:24:25;;;;;;;7.43;3.30;;;24.50;52.80;;;;;;5082535;28;20463;-83
2024/01/25 10:26:51;;;;;;;10.03;3.50;;;24.70;52.70;;;;;;5076501;28;20432;-83
2024/01/25 10:29:18;;;;;;;10.70;3.27;;;24.80;52.60;;;;;;5075110;28;20445;-85
2024/01/25 10:31:46;;;;;;;14.97;3.87;;;24.90;52.60;;;;;;5073099;28;20510;-86
2024/01/25 10:34:15;;;;;;;8.60;3.40;;;25.00;52.50;;;;;;5073199;28;20950;-85
2024/01/25 10:36:42;;;;;;;13.30;3.70;;;25.00;52.50;;;;;;5073452;28;20951;-86
2024/01/25 10:39:10;;;;;;;9.03;3.33;;;25.20;52.70;;;;;;5073188;28;20436;-85
2024/01/25 10:41:39;;;;;;;25.87;3.50;;;25.10;52.70;;;;;;5073058;28;20525;-86
2024/01/25 10:44:07;;;;;;;12.97;4.07;;;25.00;52.80;;;;;;5072917;28;21034;-83
2024/01/25 10:46:35;;;;;;;13.03;3.47;;;24.90;52.80;;;;;;5071863;28;20780;-87
2024/01/25 10:49:02;;;;;;;15.33;3.37;;;24.80;52.70;;;;;;5054601;28;20458;-87
2024/01/25 10:51:31;;;;;;;11.20;3.90;;;24.70;52.80;;;;;;5074910;28;20447;-87
2024/01/25 10:53:59;;;;;;;20.73;3.70;;;24.70;53.00;;;;;;5074486;28;20440;-86
2024/01/25 10:56:26;;;;;;;10.20;3.27;;;24.70;53.10;;;;;;5074508;28;20947;-87
2024/01/25 10:58:54;;;;;;;10.20;3.33;;;24.60;53.10;;;;;;5074658;28;20448;-87
2024/01/25 11:01:21;;;;;;;5.83;2.50;;;24.60;53.10;;;;;;5076338;28;20579;-87
2024/01/25 11:03:48;;;;;;;13.53;3.37;;;24.60;53.20;;;;;;5076454;28;20438;-87
2024/01/25 11:06:15;;;;;;;13.20;3.40;;;24.60;53.30;;;;;;5076475;28;20432;-87
2024/01/25 11:08:42;;;;;;;5.23;2.50;;;24.50;53.30;;;;;;5076362;28;20793;-87
2024/01/25 11:11:11;;;;;;;9.27;3.10;;;24.50;53.40;;;;;;5076268;28;20436;-89
2024/01/25 11:13:41;;;;;;;9.30;3.30;;;24.40;53.40;;;;;;5076183;28;20790;-89
2024/01/25 11:16:20;;;;;;;16.33;3.30;;;24.50;53.50;;;;;;5076230;28;20432;-88
2024/01/25 11:18:51;;;;;;;13.83;3.53;;;24.50;53.60;;;;;;5076382;28;20436;-88
2024/01/25 11:21:27;;;;;;;6.40;2.77;;;24.40;53.60;;;;;;5076378;28;21013;-88
2024/01/25 11:24:01;;;;;;;9.80;3.27;;;24.40;53.60;;;;;;5076334;28;20447;-88
2024/01/25 11:26:28;;;;;;;9.90;3.00;;;24.40;53.60;;;;;;5076092;28;20436;-88
2024/01/25 11:28:56;;;;;;;10.53;3.40;;;24.40;53.60;;;;;;5076126;28;20783;-87
2024/01/25 11:31:24;;;;;;;6.90;3.00;;;24.40;53.70;;;;;;5075951;28;20432;-87
2024/01/25 11:33:52;;;;;;;6.80;3.47;;;24.40;53.70;;;;;;5076014;28;20435;-84
2024/01/25 11:36:23;;;;;;;9.73;2.57;;;24.40;53.60;;;;;;5097537;28;20488;-88
2024/01/25 11:38:49;;;;;;;5.30;2.60;;;24.40;53.20;;;;;;5100888;28;20423;-89
2024/01/25 11:41:16;;;;;;;5.50;2.60;;;24.40;53.60;;;;;;5083932;28;21000;-88
2024/01/25 11:43:43;;;;;;;10.90;2.53;;;24.40;53.50;;;;;;5076105;28;20443;-89
2024/01/25 11:46:10;;;;;;;6.27;2.67;;;24.40;53.60;;;;;;5076114;28;20446;-88
2024/01/25 11:48:41;;;;;;;7.60;2.70;;;24.40;53.70;;;;;;5076260;28;20806;-88
2024/01/25 11:51:10;;;;;;;5.07;2.70;;;24.40;53.70;;;;;;5076885;28;20551;-88
2024/01/25 11:53:37;;;;;;;6.47;3.20;;;24.40;53.80;;;;;;5075881;28;20449;-88
2024/01/25 11:56:07;;;;;;;9.27;3.17;;;24.40;53.80;;;;;;5075985;28;20464;-87
2024/01/25 11:58:34;;;;;;;10.40;4.53;;;24.40;53.90;;;;;;5075830;28;20535;-88
2024/01/25 12:01:03;;;;;;;15.47;4.80;;;24.40;54.10;;;;;;5075624;28;20487;-88
2024/01/25 12:03:30;;;;;;;16.60;5.80;;;24.40;54.50;;;;;;5076032;28;20449;-88
2024/01/25 12:06:00;;;;;;;14.97;5.23;;;24.40;55.40;;;;;;5075742;28;20527;-88
2024/01/25 12:08:27;;;;;;;17.30;5.97;;;24.30;55.70;;;;;;5076096;28;20440;-88
2024/01/25 12:11:04;;;;;;;19.90;7.23;;;24.30;55.90;;;;;;5075612;28;20439;-87
2024/01/25 12:13:33;;;;;;;14.47;7.07;;;24.30;56.80;;;;;;5076086;28;20440;-87
2024/01/25 12:16:01;;;;;;;17.73;8.43;;;24.30;57.40;;;;;;5075689;28;20447;-87
2024/01/25 12:18:28;;;;;;;20.73;9.13;;;24.30;57.70;;;;;;5075559;28;20440;-88
2024/01/25 12:20:55;;;;;;;24.10;11.30;;;24.30;58.60;;;;;;5075367;28;20484;-87
2024/01/25 12:23:23;;;;;;;22.20;10.90;;;24.30;58.50;;;;;;5075113;28;20464;-87
2024/01/25 12:25:50;;;;;;;16.50;9.10;;;24.30;58.60;;;;;;5076152;28;20460;-87
2024/01/25 12:28:17;;;;;;;22.17;9.47;;;24.30;58.20;;;;;;5071319;28;20544;-88
2024/01/25 12:30:44;;;;;;;18.90;9.43;;;24.30;58.40;;;;;;5055772;28;20524;-90
2024/01/25 12:33:11;;;;;;;22.33;9.47;;;24.30;58.40;;;;;;5055314;28;20832;-88
2024/01/25 12:35:38;;;;;;;15.80;10.00;;;24.30;58.50;;;;;;5055177;28;20813;-90
2024/01/25 12:38:05;;;;;;;17.73;7.90;;;24.30;58.60;;;;;;5055051;28;20822;-87
2024/01/25 12:40:33;;;;;;;14.40;8.27;;;24.30;58.30;;;;;;5054576;28;20493;-80
2024/01/25 12:43:00;;;;;;;15.63;7.33;;;24.30;57.70;;;;;;5063017;28;20439;-88
2024/01/25 12:45:27;;;;;;;14.63;7.30;;;24.20;55.90;;;;;;5074971;28;20528;-88